createdAt,value
2023-02-15T00:00:52.537Z,1.37
2023-02-15T00:03:17.633Z,1.43
2023-02-15T00:05:40.682Z,1.38
2023-02-15T00:08:03.359Z,1.37
2023-02-15T00:10:26.198Z,1.43
2023-02-15T00:12:49.292Z,1.40
2023-02-15T00:15:14.441Z,1.50
2023-02-15T00:17:37.659Z,1.43
2023-02-15T00:20:01.284Z,1.43
2023-02-15T00:22:24.478Z,1.44
2023-02-15T00:24:47.175Z,1.40
2023-02-15T00:27:10.345Z,1.40
2023-02-15T00:29:33.348Z,1.37
2023-02-15T00:31:56.779Z,1.31
2023-02-15T00:34:26.317Z,1.28
2023-02-15T00:36:50.360Z,1.30
2023-02-15T00:39:13.729Z,1.34
2023-02-15T00:41:36.783Z,1.23
2023-02-15T00:44:00.172Z,1.28
2023-02-15T00:46:23.142Z,1.24
2023-02-15T00:48:45.794Z,1.27
2023-02-15T00:51:08.600Z,1.26
2023-02-15T00:53:31.411Z,1.27
2023-02-15T00:55:54.494Z,1.22
2023-02-15T00:58:19.080Z,1.23
2023-02-15T01:00:44.276Z,1.24
2023-02-15T01:03:07.054Z,1.19
2023-02-15T01:05:30.792Z,1.20
2023-02-15T01:07:54.536Z,1.20
2023-02-15T01:10:17.561Z,1.17
2023-02-15T01:12:40.195Z,1.06
2023-02-15T01:15:03.035Z,1.06
2023-02-15T01:17:26.038Z,0.99
2023-02-15T01:19:48.819Z,0.96
2023-02-15T01:22:11.380Z,1.01
2023-02-15T01:24:33.872Z,1.06
2023-02-15T01:26:58.837Z,1.03
2023-02-15T01:29:23.244Z,1.03
2023-02-15T01:31:46.063Z,1.08
2023-02-15T01:34:10.543Z,1.08
2023-02-15T01:36:35.309Z,0.97
2023-02-15T01:38:58.087Z,0.96
2023-02-15T01:41:21.010Z,0.93
2023-02-15T01:43:49.733Z,0.90
2023-02-15T01:46:18.868Z,0.87
2023-02-15T01:48:47.409Z,0.90
2023-02-15T01:51:10.402Z,0.87
2023-02-15T01:53:44.270Z,0.80
2023-02-15T01:56:30.755Z,0.80
2023-02-15T01:58:56.522Z,0.83
2023-02-15T02:01:20.464Z,0.87
2023-02-15T02:04:04.137Z,0.83
2023-02-15T02:06:27.960Z,0.92
2023-02-15T02:08:51.618Z,0.97
2023-02-15T02:11:16.283Z,0.92
2023-02-15T02:13:44.205Z,0.99
2023-02-15T02:16:32.165Z,0.97
2023-02-15T02:19:19.533Z,0.93
2023-02-15T02:21:54.366Z,0.95
2023-02-15T02:24:30.910Z,0.90
2023-02-15T02:26:59.159Z,0.87
2023-02-15T02:29:35.079Z,0.85
2023-02-15T02:32:33.184Z,0.76
2023-02-15T02:35:06.315Z,0.70
2023-02-15T02:37:56.235Z,0.55
2023-02-15T02:40:31.425Z,0.49
2023-02-15T02:43:05.416Z,0.52
2023-02-15T02:45:38.667Z,0.44
2023-02-15T02:48:14.184Z,0.32
2023-02-15T02:50:41.069Z,0.09
2023-02-15T02:53:03.736Z,0.09
2023-02-15T02:55:38.360Z,0.06
2023-02-15T02:58:30.323Z,-0.10
2023-02-15T03:01:02.512Z,-0.27
2023-02-15T03:03:31.154Z,-0.35
2023-02-15T03:05:58.172Z,-0.46
2023-02-15T03:08:23.230Z,-0.27
2023-02-15T03:10:46.334Z,-0.18
2023-02-15T03:13:10.026Z,-0.13
2023-02-15T03:15:58.167Z,-0.07
2023-02-15T03:18:24.990Z,-0.07
2023-02-15T03:20:48.972Z,-0.03
2023-02-15T03:23:17.580Z,-0.17
2023-02-15T03:25:47.430Z,-0.22
2023-02-15T03:28:14.725Z,-0.27
2023-02-15T03:30:40.586Z,-0.15
2023-02-15T03:33:05.474Z,-0.24
2023-02-15T03:35:36.954Z,-0.31
2023-02-15T03:38:02.098Z,-0.44
2023-02-15T03:40:51.394Z,-0.45
2023-02-15T03:43:20.441Z,-0.39
2023-02-15T03:45:55.860Z,-0.35
2023-02-15T03:48:19.212Z,-0.31
2023-02-15T03:51:14.427Z,-0.17
2023-02-15T03:53:38.912Z,-0.17
2023-02-15T03:56:01.911Z,-0.24
2023-02-15T03:58:43.675Z,-0.32
2023-02-15T04:01:53.006Z,-0.38
2023-02-15T04:04:25.645Z,-0.37
2023-02-15T04:06:48.351Z,-0.42
2023-02-15T04:09:29.910Z,-0.35
2023-02-15T04:11:52.821Z,-0.37
2023-02-15T04:14:34.268Z,-0.45
2023-02-15T04:16:56.887Z,-0.39
2023-02-15T04:22:33.901Z,-0.31
2023-02-15T04:25:14.844Z,-0.35
2023-02-15T04:27:38.137Z,-0.28
2023-02-15T04:30:00.900Z,-0.17
2023-02-15T04:32:23.452Z,-0.18
2023-02-15T04:34:45.964Z,-0.32
2023-02-15T04:37:08.614Z,-0.27
2023-02-15T04:39:31.214Z,-0.29
2023-02-15T04:41:53.829Z,-0.37
2023-02-15T04:44:16.787Z,-0.22
2023-02-15T04:46:39.484Z,-0.21
2023-02-15T04:49:03.071Z,-0.15
2023-02-15T04:51:26.030Z,-0.25
2023-02-15T04:53:48.627Z,-0.22
2023-02-15T04:56:11.502Z,-0.38
2023-02-15T04:58:34.033Z,-0.39
2023-02-15T05:00:57.926Z,-0.55
2023-02-15T05:03:20.482Z,-0.72
2023-02-15T05:05:43.827Z,-0.87
2023-02-15T05:08:06.364Z,-0.97
2023-02-15T05:10:28.895Z,-1.07
2023-02-15T05:12:51.750Z,-1.05
2023-02-15T05:15:14.597Z,-0.97
2023-02-15T05:17:37.255Z,-1.08
2023-02-15T05:19:59.956Z,-1.17
2023-02-15T05:22:22.734Z,-1.17
2023-02-15T05:25:04.295Z,-1.28
2023-02-15T05:27:45.687Z,-1.27
2023-02-15T05:30:12.705Z,-1.28
2023-02-15T05:32:35.741Z,-1.20
2023-02-15T05:34:58.481Z,-1.14
2023-02-15T05:37:21.098Z,-1.14
2023-02-15T05:39:43.807Z,-1.10
2023-02-15T05:42:07.230Z,-0.94
2023-02-15T05:44:29.888Z,-0.89
2023-02-15T05:46:52.500Z,-0.89
2023-02-15T05:49:15.573Z,-0.85
2023-02-15T05:51:38.747Z,-0.76
2023-02-15T05:54:01.370Z,-0.70
2023-02-15T05:56:23.964Z,-0.66
2023-02-15T05:58:46.750Z,-0.62
2023-02-15T06:01:12.949Z,-0.64
2023-02-15T06:03:39.753Z,-0.45
2023-02-15T06:06:06.726Z,-0.22
2023-02-15T06:08:52.878Z,-0.25
2023-02-15T06:11:17.532Z,-0.08
2023-02-15T06:13:40.890Z,-0.04
2023-02-15T06:16:08.357Z,0.17
2023-02-15T06:18:34.823Z,0.25
2023-02-15T06:21:01.464Z,0.31
2023-02-15T06:23:30.192Z,0.42
2023-02-15T06:26:01.147Z,0.59
2023-02-15T06:28:27.697Z,0.79
2023-02-15T06:30:51.266Z,0.93
2023-02-15T06:33:14.010Z,1.04
2023-02-15T06:35:36.856Z,1.26
2023-02-15T06:37:59.565Z,1.35
2023-02-15T06:40:22.588Z,1.45
2023-02-15T06:42:45.604Z,1.65
2023-02-15T06:45:09.036Z,2.03
2023-02-15T06:47:40.403Z,2.45
2023-02-15T06:50:04.870Z,2.64
2023-02-15T06:52:28.354Z,2.86
2023-02-15T06:54:52.148Z,3.27
2023-02-15T06:57:15.364Z,3.60
2023-02-15T06:59:38.787Z,3.99
2023-02-15T07:02:02.173Z,4.37
2023-02-15T07:04:25.765Z,4.71
2023-02-15T07:06:52.081Z,5.04
2023-02-15T07:09:16.939Z,5.51
2023-02-15T07:11:59.806Z,5.99
2023-02-15T07:14:24.251Z,6.53
2023-02-15T07:16:47.640Z,6.94
2023-02-15T07:19:10.829Z,6.98
2023-02-15T07:21:35.310Z,7.25
2023-02-15T07:23:59.849Z,6.81
2023-02-15T07:26:23.591Z,6.30
2023-02-15T07:28:47.858Z,5.56
2023-02-15T07:31:11.956Z,4.99
2023-02-15T07:33:36.297Z,5.46
2023-02-15T07:36:03.555Z,5.65
2023-02-15T07:38:28.910Z,5.23
2023-02-15T07:40:52.306Z,4.74
2023-02-15T07:43:17.094Z,4.74
2023-02-15T07:45:40.688Z,5.12
2023-02-15T07:48:04.342Z,5.08
2023-02-15T07:50:28.397Z,5.39
2023-02-15T07:52:51.632Z,4.65
2023-02-15T07:55:15.075Z,5.50
2023-02-15T07:57:37.814Z,5.92
2023-02-15T08:00:00.507Z,5.79
2023-02-15T08:02:24.038Z,5.26
2023-02-15T08:04:47.569Z,6.25
2023-02-15T08:07:10.762Z,5.48
2023-02-15T08:09:34.265Z,4.65
2023-02-15T08:11:58.538Z,4.56
2023-02-15T08:14:23.495Z,4.23
2023-02-15T08:16:52.145Z,4.29
2023-02-15T08:19:18.501Z,4.28
2023-02-15T08:21:44.395Z,4.19
2023-02-15T08:24:09.275Z,4.19
2023-02-15T08:26:32.732Z,4.17
2023-02-15T08:28:55.778Z,3.88
2023-02-15T08:31:19.233Z,3.95
2023-02-15T08:33:43.470Z,4.16
2023-02-15T08:36:17.709Z,4.02
2023-02-15T08:38:41.047Z,4.05
2023-02-15T08:41:21.938Z,4.10
2023-02-15T08:43:44.811Z,4.05
2023-02-15T08:46:08.301Z,4.22
2023-02-15T08:48:31.642Z,4.49
2023-02-15T08:50:55.009Z,4.60
2023-02-15T08:53:22.550Z,4.81
2023-02-15T08:55:45.327Z,4.98
2023-02-15T08:58:08.036Z,5.12
2023-02-15T09:00:31.090Z,5.27
2023-02-15T09:02:53.973Z,5.27
2023-02-15T09:05:16.895Z,5.48
2023-02-15T09:07:39.837Z,5.58
2023-02-15T09:10:03.104Z,5.64
2023-02-15T09:12:26.268Z,5.61
2023-02-15T09:14:50.109Z,5.42
2023-02-15T09:17:15.964Z,5.61
2023-02-15T09:22:15.873Z,5.33
2023-02-15T09:24:39.311Z,5.50
2023-02-15T09:27:01.943Z,5.64
2023-02-15T09:29:25.351Z,5.51
2023-02-15T09:31:52.160Z,5.57
2023-02-15T09:34:18.147Z,5.77
2023-02-15T09:36:41.629Z,5.64
2023-02-15T09:39:08.778Z,5.50
2023-02-15T09:41:40.258Z,5.60
2023-02-15T09:44:12.326Z,5.71
2023-02-15T09:46:35.350Z,5.97
2023-02-15T09:49:09.728Z,5.97
2023-02-15T09:51:52.709Z,6.22
2023-02-15T09:54:27.665Z,6.28
2023-02-15T09:56:56.655Z,6.21
2023-02-15T09:59:25.639Z,6.23
2023-02-15T10:01:51.391Z,6.34
2023-02-15T10:04:37.342Z,6.47
2023-02-15T10:07:08.994Z,6.60
2023-02-15T10:10:12.436Z,6.71
2023-02-15T10:13:03.576Z,6.95
2023-02-15T10:15:56.840Z,7.18
2023-02-15T10:19:05.010Z,7.36
2023-02-15T10:21:40.464Z,7.37
2023-02-15T10:24:12.376Z,7.62
2023-02-15T10:26:48.828Z,7.77
2023-02-15T10:29:36.025Z,7.64
2023-02-15T10:32:29.985Z,7.74
2023-02-15T10:35:01.168Z,7.78
2023-02-15T10:37:56.186Z,7.85
2023-02-15T10:40:30.375Z,8.04
2023-02-15T10:43:12.505Z,8.21
2023-02-15T10:45:45.620Z,8.16
2023-02-15T10:48:47.270Z,8.28
2023-02-15T10:51:34.132Z,8.25
2023-02-15T10:54:40.389Z,8.11
2023-02-15T10:57:22.028Z,8.21
2023-02-15T11:00:05.560Z,8.52
2023-02-15T11:02:57.532Z,8.48
2023-02-15T11:05:59.355Z,8.49
2023-02-15T11:08:25.262Z,8.35
2023-02-15T11:11:00.176Z,8.31
2023-02-15T11:13:28.615Z,8.24
2023-02-15T11:15:56.989Z,8.36
2023-02-15T11:18:51.651Z,8.25
2023-02-15T11:21:42.085Z,8.25
2023-02-15T11:24:32.664Z,8.39
2023-02-15T11:27:16.180Z,8.52
2023-02-15T11:29:42.007Z,8.50
2023-02-15T11:32:18.605Z,8.57
2023-02-15T11:35:05.785Z,8.62
2023-02-15T11:37:48.706Z,8.60
2023-02-15T11:40:26.788Z,8.43
2023-02-15T11:42:53.613Z,8.63
2023-02-15T11:45:24.639Z,8.64
2023-02-15T11:47:48.915Z,8.56
2023-02-15T11:50:19.516Z,8.54
2023-02-15T11:52:43.105Z,8.54
2023-02-15T11:55:15.799Z,8.63
2023-02-15T11:57:48.219Z,8.62
2023-02-15T12:00:20.826Z,8.52
2023-02-15T12:02:50.699Z,8.77
2023-02-15T12:05:20.163Z,8.91
2023-02-15T12:07:58.979Z,8.91
2023-02-15T12:10:30.824Z,8.91
2023-02-15T12:13:15.527Z,8.90
2023-02-15T12:15:41.786Z,8.98
2023-02-15T12:18:05.076Z,8.70
2023-02-15T12:20:36.269Z,8.80
2023-02-15T12:23:07.129Z,8.97
2023-02-15T12:25:41.394Z,9.04
2023-02-15T12:28:31.665Z,8.91
2023-02-15T12:30:57.009Z,8.79
2023-02-15T12:33:36.542Z,9.07
2023-02-15T12:36:29.108Z,8.97
2023-02-15T12:39:17.782Z,9.11
2023-02-15T12:42:05.393Z,9.29
2023-02-15T12:44:36.981Z,9.21
2023-02-15T12:47:18.562Z,9.12
2023-02-15T12:49:47.633Z,9.22
2023-02-15T12:52:30.744Z,9.15
2023-02-15T12:54:54.607Z,9.15
2023-02-15T12:57:34.565Z,9.17
2023-02-15T13:00:07.563Z,9.27
2023-02-15T13:02:36.302Z,9.28
2023-02-15T13:05:09.480Z,9.45
2023-02-15T13:07:33.292Z,9.59
2023-02-15T13:09:56.450Z,9.50
2023-02-15T13:12:27.545Z,9.39
2023-02-15T13:14:53.300Z,9.45
2023-02-15T13:17:18.977Z,9.43
2023-02-15T13:20:05.084Z,9.19
2023-02-15T13:22:43.156Z,9.29
2023-02-15T13:25:14.060Z,9.35
2023-02-15T13:27:40.541Z,9.40
2023-02-15T13:30:10.702Z,9.42
2023-02-15T13:32:40.532Z,9.46
2023-02-15T13:35:06.610Z,9.34
2023-02-15T13:37:32.867Z,9.36
2023-02-15T13:40:02.678Z,9.38
2023-02-15T13:42:37.833Z,9.55
2023-02-15T13:45:12.115Z,9.31
2023-02-15T13:47:49.240Z,9.29
2023-02-15T13:50:20.737Z,9.15
2023-02-15T13:52:59.011Z,9.22
2023-02-15T13:55:37.256Z,9.32
2023-02-15T13:58:05.712Z,9.14
2023-02-15T14:00:36.480Z,9.15
2023-02-15T14:03:01.931Z,9.25
2023-02-15T14:05:51.238Z,9.29
2023-02-15T14:08:45.261Z,8.98
2023-02-15T14:11:13.736Z,8.97
2023-02-15T14:13:51.533Z,9.14
2023-02-15T14:16:17.107Z,9.12
2023-02-15T14:19:00.621Z,8.90
2023-02-15T14:21:26.291Z,8.96
2023-02-15T14:24:13.268Z,9.04
2023-02-15T14:26:54.636Z,9.04
2023-02-15T14:32:22.024Z,9.00
2023-02-15T14:34:54.156Z,8.98
2023-02-15T14:37:25.697Z,8.84
2023-02-15T14:40:26.482Z,8.80
2023-02-15T14:43:05.409Z,8.88
2023-02-15T14:45:55.584Z,8.80
2023-02-15T14:48:31.270Z,8.88
2023-02-15T14:50:54.014Z,8.56
2023-02-15T14:53:17.408Z,8.50
2023-02-15T14:55:40.175Z,8.45
2023-02-15T14:58:03.102Z,8.62
2023-02-15T15:00:39.081Z,8.64
2023-02-15T15:03:02.149Z,8.50
2023-02-15T15:05:35.925Z,8.46
2023-02-15T15:08:00.796Z,8.52
2023-02-15T15:10:23.361Z,8.43
2023-02-15T15:12:49.613Z,8.08
2023-02-15T15:15:34.891Z,7.95
2023-02-15T15:18:07.258Z,8.08
2023-02-15T15:20:52.477Z,7.95
2023-02-15T15:23:18.971Z,7.80
2023-02-15T15:25:58.765Z,7.84
2023-02-15T15:28:33.605Z,7.87
2023-02-15T15:30:57.738Z,7.83
2023-02-15T15:33:46.490Z,7.80
2023-02-15T15:36:52.419Z,7.84
2023-02-15T15:39:33.887Z,7.62
2023-02-15T15:42:09.983Z,7.55
2023-02-15T15:44:51.236Z,7.39
2023-02-15T15:47:38.689Z,7.29
2023-02-15T15:50:01.686Z,7.28
2023-02-15T15:52:25.695Z,7.12
2023-02-15T15:54:53.935Z,6.92
2023-02-15T15:57:34.002Z,6.80
2023-02-15T16:00:00.609Z,6.73
2023-02-15T16:02:24.700Z,6.64
2023-02-15T16:04:48.798Z,6.50
2023-02-15T16:07:29.629Z,6.25
2023-02-15T16:09:56.382Z,6.28
